Time;durP1;ratioP1;P1;durP2;ratioP2;P2;SDS_P1;SDS_P2;PMS_P1;PMS_P2;Temp;Humidity;BMP_temperature;BMP_pressure;BME280_temperature;BME280_humidity;BME280_pressure;Samples;Min_cycle;Max_cycle;Signal;HPM_P1;HPM_P2
2022/04/22 00:03:32;;;;;;;6.72;4.20;;;11.70;1.00;;;;;;10331504;28;84854;-57
2022/04/22 00:08:33;;;;;;;9.07;4.82;;;11.80;1.00;;;;;;10332113;28;83870;-56
2022/04/22 00:13:34;;;;;;;7.50;5.05;;;11.80;1.00;;;;;;10333597;28;83359;-57
2022/04/22 00:18:35;;;;;;;9.07;4.38;;;11.80;1.00;;;;;;10314591;28;85224;-56
2022/04/22 00:23:36;;;;;;;8.88;5.40;;;11.80;1.00;;;;;;10332454;28;83407;-57
2022/04/22 00:28:36;;;;;;;7.22;4.50;;;11.80;1.00;;;;;;10332047;28;84063;-56
2022/04/22 00:33:37;;;;;;;8.27;4.97;;;11.70;1.00;;;;;;10333626;28;83435;-58
2022/04/22 00:38:38;;;;;;;9.52;5.20;;;11.70;1.00;;;;;;10331474;28;83292;-54
2022/04/22 00:43:44;;;;;;;9.27;5.15;;;11.50;1.00;;;;;;10313731;28;83269;-59
2022/04/22 00:48:45;;;;;;;10.20;5.53;;;11.40;1.00;;;;;;10330672;28;84122;-53
2022/04/22 00:53:49;;;;;;;9.27;5.90;;;11.30;1.00;;;;;;10330075;28;83418;-50
2022/04/22 00:58:51;;;;;;;11.30;6.30;;;11.20;1.00;;;;;;10329639;28;84113;-55
2022/04/22 01:14:31;;;;;;;8.95;5.55;;;11.00;1.00;;;;;;10329496;28;83328;-54
2022/04/22 01:19:31;;;;;;;10.30;5.18;;;11.00;1.00;;;;;;10328902;28;84162;-57
2022/04/22 01:24:32;;;;;;;10.23;6.15;;;10.90;1.00;;;;;;10329368;28;83439;-56
2022/04/22 01:29:33;;;;;;;14.25;6.88;;;10.80;1.00;;;;;;10327557;28;83207;-55
2022/04/22 01:34:33;;;;;;;12.52;6.18;;;10.80;1.00;;;;;;10328857;28;83336;-56
2022/04/22 01:39:34;;;;;;;13.48;6.50;;;10.80;20.40;;;;;;10328069;28;83945;-56
2022/04/22 01:44:36;;;;;;;11.27;5.68;;;10.80;30.40;;;;;;10310849;28;89217;-55
2022/04/22 01:49:36;;;;;;;11.93;6.50;;;10.80;56.30;;;;;;10293640;28;85555;-53
2022/04/22 01:54:37;;;;;;;9.40;5.97;;;10.80;68.10;;;;;;10327691;28;88957;-52
2022/04/22 01:59:37;;;;;;;12.25;7.03;;;10.70;99.90;;;;;;10326695;28;92078;-57
2022/04/22 02:04:38;;;;;;;11.57;7.30;;;10.80;99.90;;;;;;10327578;28;84623;-56
2022/04/22 02:09:39;;;;;;;13.13;7.60;;;10.70;99.90;;;;;;10326023;28;84213;-56
2022/04/22 02:14:39;;;;;;;11.90;6.45;;;10.70;99.90;;;;;;10327322;28;84163;-55
2022/04/22 02:19:40;;;;;;;13.30;6.93;;;10.70;99.90;;;;;;10326707;28;83542;-54
2022/04/22 02:24:41;;;;;;;15.88;7.60;;;10.70;99.90;;;;;;10327318;28;84134;-54
2022/04/22 02:29:42;;;;;;;10.82;7.47;;;10.70;99.90;;;;;;10326330;28;84187;-56
2022/04/22 02:34:43;;;;;;;13.75;8.38;;;10.80;99.90;;;;;;10327115;28;84074;-55
2022/04/22 02:39:44;;;;;;;13.60;7.22;;;10.80;99.90;;;;;;10319979;28;83951;-57
2022/04/22 02:50:04;;;;;;;12.57;7.10;;;10.90;99.90;;;;;;10326003;28;84111;-56
2022/04/22 02:55:05;;;;;;;17.38;8.15;;;10.90;99.90;;;;;;10326383;28;84008;-55
2022/04/22 03:00:06;;;;;;;17.73;7.97;;;10.90;99.90;;;;;;10318816;28;84112;-56
2022/04/22 03:05:09;;;;;;;14.57;8.30;;;10.90;99.90;;;;;;10326666;28;85066;-55
2022/04/22 03:10:10;;;;;;;13.38;8.30;;;10.90;99.90;;;;;;10298138;28;84420;-56
2022/04/22 03:15:10;;;;;;;13.68;7.93;;;10.80;99.90;;;;;;10308759;28;86303;-57
2022/04/22 03:20:11;;;;;;;12.75;8.18;;;10.90;99.90;;;;;;10332408;28;84547;-59
2022/04/22 03:25:12;;;;;;;12.05;7.25;;;10.90;99.90;;;;;;10333165;28;84008;-57
2022/04/22 03:30:13;;;;;;;12.93;7.63;;;10.90;99.90;;;;;;10312567;28;84106;-57
2022/04/22 03:35:14;;;;;;;13.90;8.13;;;10.90;99.90;;;;;;10332524;28;83517;-57
2022/04/22 03:40:14;;;;;;;14.57;7.80;;;10.90;99.90;;;;;;10328759;28;84149;-58
2022/04/22 03:45:15;;;;;;;13.52;7.50;;;10.90;99.90;;;;;;10332112;28;84016;-56
2022/04/22 03:50:16;;;;;;;15.65;8.60;;;10.90;99.90;;;;;;10313500;28;84939;-56
2022/04/22 03:55:16;;;;;;;11.50;7.57;;;10.90;99.90;;;;;;10313034;28;85583;-58
2022/04/22 04:00:17;;;;;;;18.52;9.05;;;10.90;99.90;;;;;;10313060;28;87934;-56
2022/04/22 04:05:17;;;;;;;15.68;7.90;;;10.90;99.90;;;;;;10330777;28;84205;-52
2022/04/22 04:26:17;;;;;;;15.23;8.85;;;10.80;99.90;;;;;;10328145;28;84197;-55
2022/04/22 04:31:18;;;;;;;13.73;8.00;;;10.70;99.90;;;;;;10329133;28;84177;-59
2022/04/22 04:36:19;;;;;;;16.70;9.07;;;10.60;99.90;;;;;;10311061;28;83521;-54
2022/04/22 04:41:20;;;;;;;14.32;8.48;;;10.60;99.90;;;;;;10340413;22;83578;-49
2022/04/22 04:46:20;;;;;;;17.38;8.77;;;10.60;99.90;;;;;;10309219;28;84227;-46
2022/04/22 04:51:21;;;;;;;14.80;8.30;;;10.50;99.90;;;;;;10306809;28;84226;-45
2022/04/22 04:56:21;;;;;;;15.63;8.73;;;10.60;99.90;;;;;;10306935;28;84090;-48
2022/04/22 05:01:22;;;;;;;19.95;9.55;;;10.60;99.90;;;;;;10308779;28;84499;-48
2022/04/22 05:06:23;;;;;;;18.13;9.32;;;10.60;99.90;;;;;;10306930;28;84126;-49
2022/04/22 05:11:23;;;;;;;17.10;9.30;;;10.60;99.90;;;;;;10316215;28;85984;-46
2022/04/22 05:16:24;;;;;;;18.40;9.38;;;10.50;99.90;;;;;;10328176;28;84193;-44
2022/04/22 05:21:24;;;;;;;20.07;11.57;;;10.50;99.90;;;;;;10307295;28;83908;-47
2022/04/22 05:26:25;;;;;;;18.73;9.80;;;10.40;99.90;;;;;;10289150;28;84726;-46
2022/04/22 05:36:45;;;;;;;20.83;10.27;;;10.60;99.90;;;;;;10324716;28;83774;-55
2022/04/22 05:41:45;;;;;;;17.27;9.60;;;10.60;99.90;;;;;;10322523;28;94529;-46
2022/04/22 05:46:46;;;;;;;19.00;9.73;;;10.60;99.90;;;;;;10298060;28;83957;-47
2022/04/22 05:51:47;;;;;;;19.42;10.65;;;10.60;99.90;;;;;;10315541;28;92494;-45
2022/04/22 05:56:47;;;;;;;15.70;8.68;;;10.50;99.90;;;;;;10322852;28;84284;-46
2022/04/22 06:01:48;;;;;;;17.55;9.70;;;10.50;99.90;;;;;;10285975;28;84368;-48
2022/04/22 06:06:48;;;;;;;16.63;8.93;;;10.50;99.90;;;;;;10287536;28;85121;-46
2022/04/22 06:11:49;;;;;;;15.70;9.23;;;10.70;99.90;;;;;;10268897;28;85107;-44
2022/04/22 06:16:50;;;;;;;16.33;10.07;;;10.70;99.90;;;;;;10286331;28;84130;-54
2022/04/22 06:21:50;;;;;;;18.95;10.60;;;10.80;99.90;;;;;;10309719;28;87717;-50
2022/04/22 06:26:51;;;;;;;17.60;10.18;;;10.80;99.90;;;;;;10328590;28;83652;-48
2022/04/22 06:31:53;;;;;;;17.65;9.88;;;10.90;99.90;;;;;;10326995;28;84748;-45
2022/04/22 06:36:54;;;;;;;16.33;9.73;;;11.10;99.90;;;;;;10309340;28;84992;-56
2022/04/22 06:47:15;;;;;;;17.58;9.55;;;11.30;93.10;;;;;;10308680;28;85189;-46
2022/04/22 06:52:15;;;;;;;16.30;9.30;;;11.40;81.50;;;;;;10327845;28;84222;-55
2022/04/22 06:57:18;;;;;;;14.70;9.18;;;11.50;64.10;;;;;;10309718;28;83410;-55
2022/04/22 07:02:19;;;;;;;14.30;9.50;;;11.70;33.40;;;;;;10284304;28;85085;-57
2022/04/22 07:07:20;;;;;;;15.45;8.73;;;11.80;1.00;;;;;;10293130;28;83941;-57
2022/04/22 07:12:23;;;;;;;17.33;8.90;;;12.00;1.00;;;;;;10281093;28;84375;-56
2022/04/22 07:17:23;;;;;;;14.70;7.78;;;12.10;1.00;;;;;;10299321;28;84696;-52
2022/04/22 07:22:24;;;;;;;13.32;7.22;;;12.00;1.00;;;;;;10292996;28;83325;-57
2022/04/22 07:27:27;;;;;;;12.07;6.80;;;12.10;1.00;;;;;;10275666;28;83327;-54
2022/04/22 07:32:27;;;;;;;11.75;6.80;;;12.40;1.00;;;;;;10331019;28;84225;-53
2022/04/22 07:37:28;;;;;;;12.35;6.90;;;12.60;1.00;;;;;;10332770;28;83337;-54
2022/04/22 07:42:30;;;;;;;10.65;6.40;;;13.20;1.00;;;;;;10287968;28;83419;-55
2022/04/22 07:47:32;;;;;;;11.02;6.47;;;13.90;1.00;;;;;;10331891;28;83245;-53
2022/04/22 07:52:33;;;;;;;11.52;6.60;;;14.90;1.00;;;;;;10310616;28;84888;-55
2022/04/22 07:57:34;;;;;;;10.02;6.10;;;14.80;1.00;;;;;;10278186;28;83369;-56
2022/04/22 08:02:38;;;;;;;12.00;6.60;;;14.30;1.00;;;;;;10332805;28;83307;-47
2022/04/22 08:07:38;;;;;;;9.60;5.90;;;13.90;1.00;;;;;;10329223;28;84170;-51
2022/04/22 08:12:39;;;;;;;10.00;5.63;;;14.10;1.00;;;;;;10300643;28;84211;-55
2022/04/22 08:17:40;;;;;;;10.93;5.85;;;15.10;1.00;;;;;;10291198;28;84087;-56
2022/04/22 08:22:43;;;;;;;10.35;5.82;;;16.10;99.90;;;;;;10301398;28;85164;-57
2022/04/22 08:27:48;;;;;;;9.80;4.78;;;16.10;99.90;;;;;;10297085;28;85242;-51
2022/04/22 08:32:48;;;;;;;8.73;5.05;;;15.90;99.90;;;;;;10331655;28;84253;-59
2022/04/22 08:37:49;;;;;;;7.88;5.10;;;15.60;99.90;;;;;;10329516;28;83441;-54
2022/04/22 08:42:50;;;;;;;9.57;5.20;;;15.60;99.90;;;;;;10313884;28;83603;-57
2022/04/22 08:53:15;;;;;;;6.93;4.47;;;15.90;99.90;;;;;;10302773;28;85198;-46
2022/04/22 08:58:18;;;;;;;6.60;4.40;;;16.20;99.90;;;;;;10290170;28;84184;-50
2022/04/22 09:03:20;;;;;;;5.68;4.18;;;16.40;1.00;;;;;;10272730;28;84183;-54
2022/04/22 09:08:23;;;;;;;7.22;4.53;;;16.50;1.00;;;;;;10290547;28;83240;-52
2022/04/22 09:13:32;;;;;;;6.68;4.38;;;16.80;1.00;;;;;;10312791;28;85462;-58
2022/04/22 09:18:37;;;;;;;6.50;4.35;;;17.70;99.90;;;;;;10295909;28;86154;-50
2022/04/22 09:23:40;;;;;;;7.15;4.20;;;18.50;1.00;;;;;;10312523;28;83704;-50
2022/04/22 09:28:41;;;;;;;7.88;4.00;;;18.20;99.90;;;;;;10328480;28;83788;-54
2022/04/22 09:33:41;;;;;;;8.73;4.47;;;18.30;1.00;;;;;;10330103;28;83245;-57
2022/04/22 09:44:01;;;;;;;5.55;3.33;;;18.90;1.00;;;;;;10327543;28;83411;-53
2022/04/22 09:49:02;;;;;;;4.85;3.20;;;19.30;1.00;;;;;;10328883;28;83250;-60
2022/04/22 09:54:14;;;;;;;4.78;2.97;;;20.30;1.00;;;;;;10329926;28;84255;-53
2022/04/22 09:59:25;;;;;;;5.50;3.20;;;21.00;99.90;;;;;;10309557;28;83293;-54
2022/04/22 10:04:26;;;;;;;5.55;3.28;;;20.90;1.00;;;;;;10271850;28;83343;-49
2022/04/22 10:09:29;;;;;;;4.38;2.90;;;21.80;1.00;;;;;;10293279;28;83865;-48
2022/04/22 10:14:37;;;;;;;4.80;3.28;;;20.40;1.00;;;;;;10269317;28;83970;-46
2022/04/22 10:19:40;;;;;;;3.90;3.08;;;19.90;1.00;;;;;;10289766;28;84354;-47
2022/04/22 10:24:41;;;;;;;4.20;3.03;;;19.10;99.90;;;;;;10329513;28;83820;-51
2022/04/22 10:29:43;;;;;;;4.85;3.38;;;18.70;1.00;;;;;;10311006;28;84334;-55
2022/04/22 10:34:45;;;;;;;5.30;3.25;;;18.50;99.90;;;;;;10314789;28;83422;-56
2022/04/22 10:39:53;;;;;;;4.60;3.17;;;17.80;1.00;;;;;;10287160;28;84303;-56
2022/04/22 10:50:22;;;;;;;5.38;3.10;;;17.50;1.00;;;;;;10289914;28;83285;-58
2022/04/22 10:55:23;;;;;;;3.83;3.05;;;17.20;1.00;;;;;;10287696;28;84274;-56
2022/04/22 11:00:27;;;;;;;5.53;3.30;;;17.00;1.00;;;;;;10294881;28;84217;-60
2022/04/22 11:05:30;;;;;;;5.32;3.90;;;17.10;99.90;;;;;;10374534;22;83948;-63
2022/04/22 11:10:46;;;;;;;5.05;3.45;;;18.20;1.00;;;;;;10355242;28;86054;-62
2022/04/22 11:15:47;;;;;;;6.22;3.53;;;19.30;25.30;;;;;;10394466;28;83999;-61
2022/04/22 11:21:22;;;;;;;5.85;3.80;;;19.80;99.90;;;;;;10410116;28;84781;-61
2022/04/22 11:26:24;;;;;;;6.47;3.88;;;19.00;99.90;;;;;;10364658;28;83542;-62
2022/04/22 11:31:29;;;;;;;6.20;4.05;;;18.00;99.90;;;;;;10407677;28;84156;-60
2022/04/22 11:36:30;;;;;;;5.55;3.63;;;18.10;1.00;;;;;;10408680;28;83970;-60
2022/04/22 11:41:30;;;;;;;6.20;4.32;;;17.50;1.00;;;;;;10394222;28;83893;-61
2022/04/22 11:46:31;;;;;;;5.35;3.55;;;17.20;1.00;;;;;;10397369;28;83372;-60
2022/04/22 11:51:36;;;;;;;6.20;4.50;;;16.80;1.00;;;;;;10416056;28;83202;-61
2022/04/22 11:56:37;;;;;;;5.75;4.40;;;16.40;1.00;;;;;;10401124;28;84139;-60
2022/04/22 12:06:57;;;;;;;6.65;4.40;;;16.10;1.00;;;;;;10384224;28;86380;-60
2022/04/22 12:11:58;;;;;;;5.70;3.92;;;16.20;1.00;;;;;;10411852;28;84961;-59
2022/04/22 12:17:01;;;;;;;6.60;4.43;;;16.30;99.90;;;;;;10414457;28;84508;-59
2022/04/22 12:22:02;;;;;;;6.47;4.30;;;16.30;99.90;;;;;;10395103;28;84251;-59
2022/04/22 12:27:18;;;;;;;6.38;3.92;;;16.10;99.90;;;;;;10355184;28;83451;-60
2022/04/22 12:32:19;;;;;;;7.57;4.50;;;16.00;1.00;;;;;;10373091;28;84122;-56
2022/04/22 12:37:20;;;;;;;9.18;4.20;;;15.70;1.00;;;;;;10385035;28;83336;-57
2022/04/22 12:42:22;;;;;;;6.28;4.40;;;15.70;1.00;;;;;;10396518;28;84253;-58
2022/04/22 12:52:46;;;;;;;10.45;4.80;;;16.10;1.00;;;;;;10399854;28;83352;-56
2022/04/22 12:57:58;;;;;;;7.97;4.95;;;16.10;1.00;;;;;;10395285;28;84632;-55
2022/04/22 13:03:03;;;;;;;8.43;5.10;;;16.20;1.00;;;;;;10395755;28;86054;-58
2022/04/22 13:08:10;;;;;;;7.95;4.88;;;16.60;1.00;;;;;;10396205;28;84158;-52
2022/04/22 13:13:11;;;;;;;8.25;4.57;;;18.50;99.90;;;;;;10414004;28;83227;-55
2022/04/22 13:18:13;;;;;;;7.35;4.90;;;19.10;1.00;;;;;;10394078;28;86254;-52
2022/04/22 13:23:14;;;;;;;8.85;4.63;;;18.60;99.90;;;;;;10378498;28;84107;-54
2022/04/22 13:28:14;;;;;;;8.82;4.50;;;17.80;1.00;;;;;;10405246;28;90596;-56
2022/04/22 13:33:15;;;;;;;8.68;4.60;;;17.50;99.90;;;;;;10413162;28;83979;-56
2022/04/22 13:38:16;;;;;;;5.82;4.07;;;18.30;1.00;;;;;;10405157;28;83795;-56
2022/04/22 13:43:17;;;;;;;6.07;4.07;;;19.00;1.00;;;;;;10392880;28;83427;-53
2022/04/22 13:53:38;;;;;;;5.30;3.63;;;20.00;1.00;;;;;;10406169;28;83451;-55
2022/04/22 13:58:40;;;;;;;5.15;3.40;;;20.20;99.90;;;;;;10394384;28;83659;-55
2022/04/22 14:03:40;;;;;;;4.82;3.13;;;20.40;99.90;;;;;;10389393;28;84499;-49
2022/04/22 14:08:41;;;;;;;5.18;3.08;;;19.30;99.90;;;;;;10393777;28;84173;-48
2022/04/22 14:13:42;;;;;;;4.03;3.08;;;18.30;1.00;;;;;;10366398;28;83918;-50
2022/04/22 14:18:44;;;;;;;5.47;2.53;;;17.80;1.00;;;;;;10389788;28;85219;-59
2022/04/22 14:23:44;;;;;;;4.70;2.88;;;18.30;99.90;;;;;;10358115;28;83397;-63
2022/04/22 14:28:46;;;;;;;5.85;3.10;;;17.90;99.90;;;;;;10397492;28;85851;-49
2022/04/22 14:33:47;;;;;;;6.65;4.07;;;17.60;1.00;;;;;;10390275;28;83864;-56
2022/04/22 14:38:47;;;;;;;5.47;3.80;;;17.80;1.00;;;;;;10391850;28;84253;-53
2022/04/22 14:43:48;;;;;;;8.82;4.50;;;18.10;1.00;;;;;;10386270;28;84387;-52
2022/04/22 14:48:49;;;;;;;5.97;3.90;;;17.60;99.90;;;;;;10396159;28;84062;-57
2022/04/22 14:53:49;;;;;;;6.90;4.47;;;17.40;1.00;;;;;;10400604;28;84294;-52
2022/04/22 14:58:50;;;;;;;8.43;4.95;;;17.30;1.00;;;;;;10394348;28;83541;-54
2022/04/22 15:03:51;;;;;;;9.52;4.80;;;17.20;1.00;;;;;;10397948;28;83493;-50
2022/04/22 15:08:51;;;;;;;7.45;4.47;;;17.00;1.00;;;;;;10399161;28;84424;-61
2022/04/22 15:13:53;;;;;;;7.93;5.18;;;16.60;1.00;;;;;;10394102;28;84201;-55
2022/04/22 15:24:16;;;;;;;10.13;6.63;;;16.40;53.10;;;;;;10384240;28;84066;-56
2022/04/22 15:29:16;;;;;;;7.63;5.32;;;16.50;99.90;;;;;;10369426;28;86073;-52
2022/04/22 15:34:20;;;;;;;9.05;5.55;;;16.50;1.00;;;;;;10391271;28;84163;-55
2022/04/22 15:39:21;;;;;;;10.30;7.03;;;16.60;99.90;;;;;;10391867;28;84974;-52
2022/04/22 15:44:26;;;;;;;7.75;5.53;;;16.60;1.00;;;;;;10393273;28;83468;-53
2022/04/22 15:49:28;;;;;;;7.30;5.13;;;16.70;99.90;;;;;;10390704;28;83466;-51
2022/04/22 15:54:28;;;;;;;9.65;5.25;;;16.60;99.90;;;;;;10390790;28;83448;-56
2022/04/22 15:59:29;;;;;;;7.53;5.38;;;16.40;99.90;;;;;;10387773;28;83389;-52
2022/04/22 16:04:30;;;;;;;11.05;5.53;;;16.20;1.00;;;;;;10394790;28;84121;-54
2022/04/22 16:09:31;;;;;;;7.10;5.40;;;16.10;1.00;;;;;;10392129;28;84071;-56
2022/04/22 16:19:50;;;;;;;11.23;6.07;;;16.10;1.00;;;;;;10411627;28;83983;-55
2022/04/22 16:24:51;;;;;;;8.32;5.85;;;16.00;1.00;;;;;;10397007;28;84655;-51
2022/04/22 16:29:52;;;;;;;7.97;5.38;;;15.70;1.00;;;;;;10407820;28;84374;-52
2022/04/22 16:34:52;;;;;;;8.93;5.10;;;15.80;1.00;;;;;;10395582;28;83913;-55
2022/04/22 16:39:53;;;;;;;10.85;5.57;;;15.80;1.00;;;;;;10393159;28;83234;-55
2022/04/22 16:44:55;;;;;;;7.90;5.15;;;15.80;1.00;;;;;;10375717;28;84481;-55
2022/04/22 16:49:56;;;;;;;8.00;5.30;;;15.80;1.00;;;;;;10366226;28;83501;-54
2022/04/22 16:54:57;;;;;;;6.63;4.68;;;15.90;1.00;;;;;;10371765;28;83969;-53
2022/04/22 16:59:57;;;;;;;8.75;5.20;;;15.80;1.00;;;;;;10370947;28;83352;-53
2022/04/22 17:04:58;;;;;;;8.02;5.13;;;15.70;1.00;;;;;;10373805;22;84492;-55
2022/04/22 17:10:00;;;;;;;9.63;5.70;;;15.60;99.90;;;;;;10344060;28;85153;-56
2022/04/22 17:25:40;;;;;;;8.77;4.88;;;15.50;1.00;;;;;;10351823;28;85402;-54
2022/04/22 17:30:40;;;;;;;6.68;4.38;;;15.40;1.00;;;;;;10353122;28;84516;-53
2022/04/22 17:35:41;;;;;;;6.22;4.47;;;15.30;1.00;;;;;;10367570;28;83491;-52
2022/04/22 17:40:42;;;;;;;8.35;4.55;;;15.20;1.00;;;;;;10367974;28;83951;-51
2022/04/22 17:45:42;;;;;;;6.25;4.35;;;15.10;37.40;;;;;;10369206;28;83512;-49
2022/04/22 17:50:43;;;;;;;10.40;4.80;;;15.00;99.90;;;;;;10341685;28;84088;-48
2022/04/22 17:55:44;;;;;;;7.05;4.40;;;14.90;99.90;;;;;;10320650;28;84212;-53
2022/04/22 18:00:44;;;;;;;9.05;4.70;;;14.90;99.90;;;;;;10357143;28;85331;-48
2022/04/22 18:05:46;;;;;;;7.10;4.47;;;14.80;99.90;;;;;;10366689;28;84339;-48
2022/04/22 18:10:47;;;;;;;6.82;5.18;;;14.70;99.90;;;;;;10361829;28;84374;-49
2022/04/22 18:21:10;;;;;;;7.47;4.78;;;14.40;1.00;;;;;;10360926;28;84571;-49
2022/04/22 18:26:12;;;;;;;8.90;5.20;;;14.40;1.00;;;;;;10367953;28;84081;-49
2022/04/22 18:31:13;;;;;;;8.63;5.07;;;14.40;1.00;;;;;;10368639;28;83990;-52
2022/04/22 18:36:13;;;;;;;7.47;5.53;;;14.20;1.00;;;;;;10368271;28;83374;-52
2022/04/22 18:41:14;;;;;;;6.43;4.85;;;14.10;1.00;;;;;;10351713;28;84045;-49
2022/04/22 18:46:14;;;;;;;7.22;5.13;;;14.00;1.00;;;;;;10367637;28;83741;-49
2022/04/22 18:51:15;;;;;;;8.38;5.40;;;14.00;1.00;;;;;;10350862;28;85092;-53
2022/04/22 18:56:17;;;;;;;7.47;5.03;;;13.90;1.00;;;;;;10364433;28;84207;-54
2022/04/22 19:01:17;;;;;;;8.50;4.82;;;13.90;1.00;;;;;;10328251;28;85342;-50
2022/04/22 19:06:18;;;;;;;8.35;4.78;;;13.80;1.00;;;;;;10360979;28;83843;-50
2022/04/22 19:11:19;;;;;;;7.03;4.32;;;13.70;1.00;;;;;;10365391;28;84163;-54
2022/04/22 19:16:20;;;;;;;6.63;4.43;;;13.60;1.00;;;;;;10366179;28;83705;-50
2022/04/22 19:21:21;;;;;;;3.63;3.17;;;13.50;1.00;;;;;;10372304;28;83982;-53
2022/04/22 19:26:22;;;;;;;4.43;3.30;;;13.40;1.00;;;;;;10366427;28;84613;-49
2022/04/22 19:31:23;;;;;;;5.70;2.75;;;13.30;1.00;;;;;;10366990;28;84135;-49
2022/04/22 19:41:47;;;;;;;4.90;2.83;;;13.20;1.00;;;;;;10367337;28;83267;-50
2022/04/22 19:46:48;;;;;;;4.95;3.15;;;13.10;1.00;;;;;;10363295;28;84519;-49
2022/04/22 19:51:48;;;;;;;5.20;3.55;;;13.10;1.00;;;;;;10369593;28;83783;-49
2022/04/22 19:56:49;;;;;;;7.13;4.50;;;13.10;1.00;;;;;;10349118;28;88144;-54
2022/04/22 20:01:51;;;;;;;5.55;3.75;;;13.10;1.00;;;;;;10367058;28;85067;-55
2022/04/22 20:06:52;;;;;;;5.85;3.72;;;13.00;1.00;;;;;;10365466;28;84144;-51
2022/04/22 20:11:53;;;;;;;6.70;3.97;;;13.00;1.00;;;;;;10348671;28;84873;-52
2022/04/22 20:16:54;;;;;;;5.90;3.50;;;12.90;1.00;;;;;;10348685;28;85368;-51
2022/04/22 20:21:54;;;;;;;5.57;3.97;;;12.90;1.00;;;;;;10367729;28;84166;-51
2022/04/22 20:26:55;;;;;;;7.43;4.43;;;12.80;1.00;;;;;;10367182;28;83258;-51
2022/04/22 20:31:56;;;;;;;7.05;4.70;;;12.70;1.00;;;;;;10367306;28;83363;-52
2022/04/22 20:42:15;;;;;;;8.55;3.83;;;12.60;1.00;;;;;;10343580;28;84973;-55
2022/04/22 20:47:16;;;;;;;7.03;4.15;;;12.50;1.00;;;;;;10346226;28;84175;-50
2022/04/22 20:52:17;;;;;;;6.57;4.22;;;12.50;1.00;;;;;;10367587;28;83860;-53
2022/04/22 20:57:17;;;;;;;9.70;4.65;;;12.40;1.00;;;;;;10366016;28;84132;-53
2022/04/22 21:02:18;;;;;;;7.47;4.63;;;12.40;1.00;;;;;;10365800;28;84012;-55
2022/04/22 21:07:19;;;;;;;7.15;4.32;;;12.30;1.00;;;;;;10366875;28;84161;-48
2022/04/22 21:12:20;;;;;;;10.00;5.20;;;12.30;1.00;;;;;;10369027;28;85109;-52
2022/04/22 21:17:20;;;;;;;7.20;4.80;;;12.20;1.00;;;;;;10367489;28;84691;-50
2022/04/22 21:22:21;;;;;;;8.85;5.57;;;12.10;1.00;;;;;;10348612;28;85956;-50
2022/04/22 21:27:22;;;;;;;8.43;5.35;;;12.10;1.00;;;;;;10365481;28;84093;-48
2022/04/22 21:32:26;;;;;;;8.88;6.10;;;12.10;1.00;;;;;;10369332;28;84306;-53
2022/04/22 21:37:27;;;;;;;9.68;5.07;;;12.10;1.00;;;;;;10367932;28;83380;-51
2022/04/22 21:42:28;;;;;;;8.25;5.63;;;11.90;1.00;;;;;;10335189;28;83710;-51
2022/04/22 21:47:28;;;;;;;8.60;6.07;;;11.90;1.00;;;;;;10332704;28;85350;-49
2022/04/22 21:52:29;;;;;;;11.13;6.70;;;11.90;1.00;;;;;;10365674;28;83878;-49
2022/04/22 21:57:30;;;;;;;10.02;6.15;;;11.90;1.00;;;;;;10364122;28;84145;-48
2022/04/22 22:02:31;;;;;;;10.77;6.85;;;11.90;1.00;;;;;;10367115;28;83749;-48
2022/04/22 22:07:31;;;;;;;11.60;6.50;;;11.90;1.00;;;;;;10347193;28;84845;-48
2022/04/22 22:12:32;;;;;;;10.95;7.45;;;11.90;1.00;;;;;;10365223;28;85033;-48
2022/04/22 22:17:32;;;;;;;14.85;7.47;;;11.80;1.00;;;;;;10364018;28;92674;-51
2022/04/22 22:22:34;;;;;;;12.73;7.43;;;11.80;1.00;;;;;;10366419;28;84951;-54
2022/04/22 22:27:34;;;;;;;13.13;7.18;;;11.70;1.00;;;;;;10366018;28;83361;-49
2022/04/22 22:32:35;;;;;;;14.07;8.05;;;11.70;1.00;;;;;;10334494;28;86216;-47
2022/04/22 22:37:36;;;;;;;13.32;8.30;;;11.70;1.00;;;;;;10350223;28;86174;-52
2022/04/22 22:42:37;;;;;;;14.15;7.95;;;11.60;1.00;;;;;;10370867;28;84255;-52
2022/04/22 22:47:38;;;;;;;12.77;8.07;;;11.60;1.00;;;;;;10346794;28;86158;-55
2022/04/22 22:52:38;;;;;;;13.63;8.43;;;11.60;1.00;;;;;;10370366;28;83292;-53
2022/04/22 22:57:39;;;;;;;14.25;8.52;;;11.50;1.00;;;;;;10369264;28;84310;-47
2022/04/22 23:02:39;;;;;;;14.43;7.85;;;11.50;1.00;;;;;;10369768;28;83862;-49
2022/04/22 23:07:40;;;;;;;17.48;9.40;;;11.50;1.00;;;;;;10349084;22;84186;-53
2022/04/22 23:12:41;;;;;;;16.38;9.30;;;11.50;1.00;;;;;;10315034;28;84533;-50
2022/04/22 23:17:41;;;;;;;19.00;9.18;;;11.50;1.00;;;;;;10308150;28;85352;-51
2022/04/22 23:22:42;;;;;;;19.27;10.57;;;11.50;1.00;;;;;;10317642;28;85295;-49
2022/04/22 23:27:43;;;;;;;15.95;9.05;;;11.40;1.00;;;;;;10326901;28;84462;-47
2022/04/22 23:32:44;;;;;;;16.42;9.75;;;11.40;1.00;;;;;;10333326;28;83826;-49
2022/04/22 23:37:45;;;;;;;19.25;10.20;;;11.40;1.00;;;;;;10331208;28;83965;-48
2022/04/22 23:42:46;;;;;;;22.77;12.82;;;11.50;1.00;;;;;;10332711;28;83707;-47
2022/04/22 23:47:46;;;;;;;26.88;14.38;;;11.60;1.00;;;;;;10331254;28;84227;-52
2022/04/22 23:52:47;;;;;;;19.58;10.38;;;11.50;1.00;;;;;;10332706;28;84163;-50
2022/04/22 23:57:48;;;;;;;18.45;10.38;;;11.50;1.00;;;;;;10330773;28;84196;-49
